sensor_id;sensor_type;location;lat;lon;timestamp;temperature;humidity
6375;DHT22;35400;45.472;-122.822;2023-06-26T00:00:03;27.30;73.60
6375;DHT22;35400;45.472;-122.822;2023-06-26T00:02:31;27.30;71.60
6375;DHT22;35400;45.472;-122.822;2023-06-26T00:05:01;27.40;71.80
6375;DHT22;35400;45.472;-122.822;2023-06-26T00:07:29;27.40;72.10
6375;DHT22;35400;45.472;-122.822;2023-06-26T00:09:57;27.40;72.50
6375;DHT22;35400;45.472;-122.822;2023-06-26T00:12:25;27.40;71.30
6375;DHT22;35400;45.472;-122.822;2023-06-26T00:14:52;27.40;70.60
6375;DHT22;35400;45.472;-122.822;2023-06-26T00:17:19;27.40;70.40
6375;DHT22;35400;45.472;-122.822;2023-06-26T00:19:46;27.30;70.90
6375;DHT22;35400;45.472;-122.822;2023-06-26T00:22:13;27.30;70.60
6375;DHT22;35400;45.472;-122.822;2023-06-26T00:24:43;27.30;71.30
6375;DHT22;35400;45.472;-122.822;2023-06-26T00:27:11;27.30;70.60
6375;DHT22;35400;45.472;-122.822;2023-06-26T00:29:38;27.30;71.10
6375;DHT22;35400;45.472;-122.822;2023-06-26T00:32:06;27.20;70.90
6375;DHT22;35400;45.472;-122.822;2023-06-26T00:34:33;27.20;71.60
6375;DHT22;35400;45.472;-122.822;2023-06-26T00:37:00;27.30;70.50
6375;DHT22;35400;45.472;-122.822;2023-06-26T00:39:27;27.30;70.30
6375;DHT22;35400;45.472;-122.822;2023-06-26T00:41:54;27.20;70.40
6375;DHT22;35400;45.472;-122.822;2023-06-26T00:44:21;27.20;70.80
6375;DHT22;35400;45.472;-122.822;2023-06-26T00:46:48;27.10;70.60
6375;DHT22;35400;45.472;-122.822;2023-06-26T00:49:15;27.10;70.30
6375;DHT22;35400;45.472;-122.822;2023-06-26T00:51:42;27.10;70.80
6375;DHT22;35400;45.472;-122.822;2023-06-26T00:54:10;27.00;70.60
6375;DHT22;35400;45.472;-122.822;2023-06-26T00:56:37;26.90;69.70
6375;DHT22;35400;45.472;-122.822;2023-06-26T00:59:05;27.00;69.00
6375;DHT22;35400;45.472;-122.822;2023-06-26T01:01:32;27.00;69.20
6375;DHT22;35400;45.472;-122.822;2023-06-26T01:03:58;27.00;69.40
6375;DHT22;35400;45.472;-122.822;2023-06-26T01:06:28;27.00;69.10
6375;DHT22;35400;45.472;-122.822;2023-06-26T01:08:59;26.90;69.40
6375;DHT22;35400;45.472;-122.822;2023-06-26T01:11:25;26.90;69.80
6375;DHT22;35400;45.472;-122.822;2023-06-26T01:13:53;26.90;70.80
6375;DHT22;35400;45.472;-122.822;2023-06-26T01:16:23;26.80;70.50
6375;DHT22;35400;45.472;-122.822;2023-06-26T01:18:51;26.80;70.60
6375;DHT22;35400;45.472;-122.822;2023-06-26T01:21:18;26.70;71.20
6375;DHT22;35400;45.472;-122.822;2023-06-26T01:24:07;26.80;70.10
6375;DHT22;35400;45.472;-122.822;2023-06-26T01:26:37;26.80;69.90
6375;DHT22;35400;45.472;-122.822;2023-06-26T01:29:06;26.80;70.10
6375;DHT22;35400;45.472;-122.822;2023-06-26T01:31:34;26.80;70.00
6375;DHT22;35400;45.472;-122.822;2023-06-26T01:34:02;26.80;70.00
6375;DHT22;35400;45.472;-122.822;2023-06-26T01:36:29;26.80;70.60
6375;DHT22;35400;45.472;-122.822;2023-06-26T01:38:56;26.80;70.60
6375;DHT22;35400;45.472;-122.822;2023-06-26T01:41:24;26.80;70.90
6375;DHT22;35400;45.472;-122.822;2023-06-26T01:46:40;26.70;70.70
6375;DHT22;35400;45.472;-122.822;2023-06-26T01:49:20;26.60;71.20
6375;DHT22;35400;45.472;-122.822;2023-06-26T01:57:27;26.60;73.40
6375;DHT22;35400;45.472;-122.822;2023-06-26T01:59:55;26.50;74.30
6375;DHT22;35400;45.472;-122.822;2023-06-26T02:02:27;26.40;83.20
6375;DHT22;35400;45.472;-122.822;2023-06-26T02:04:55;26.20;78.60
6375;DHT22;35400;45.472;-122.822;2023-06-26T02:07:22;26.00;77.50
6375;DHT22;35400;45.472;-122.822;2023-06-26T02:09:48;25.90;76.50
6375;DHT22;35400;45.472;-122.822;2023-06-26T02:12:15;25.80;76.50
6375;DHT22;35400;45.472;-122.822;2023-06-26T02:14:42;25.80;76.80
6375;DHT22;35400;45.472;-122.822;2023-06-26T02:17:09;25.70;76.90
6375;DHT22;35400;45.472;-122.822;2023-06-26T02:19:36;25.70;76.40
6375;DHT22;35400;45.472;-122.822;2023-06-26T02:22:15;25.60;76.40
6375;DHT22;35400;45.472;-122.822;2023-06-26T02:24:43;25.60;76.70
6375;DHT22;35400;45.472;-122.822;2023-06-26T02:27:10;25.50;76.70
6375;DHT22;35400;45.472;-122.822;2023-06-26T02:29:39;25.50;76.90
6375;DHT22;35400;45.472;-122.822;2023-06-26T02:32:08;25.40;77.20
6375;DHT22;35400;45.472;-122.822;2023-06-26T02:34:35;25.40;77.20
6375;DHT22;35400;45.472;-122.822;2023-06-26T02:37:02;25.40;77.30
6375;DHT22;35400;45.472;-122.822;2023-06-26T02:39:30;25.40;77.40
6375;DHT22;35400;45.472;-122.822;2023-06-26T02:41:57;25.30;77.00
6375;DHT22;35400;45.472;-122.822;2023-06-26T02:44:25;25.30;77.00
6375;DHT22;35400;45.472;-122.822;2023-06-26T02:46:52;25.20;77.20
6375;DHT22;35400;45.472;-122.822;2023-06-26T02:49:19;25.20;77.30
6375;DHT22;35400;45.472;-122.822;2023-06-26T02:51:46;25.10;77.70
6375;DHT22;35400;45.472;-122.822;2023-06-26T02:54:19;25.10;77.80
6375;DHT22;35400;45.472;-122.822;2023-06-26T02:56:50;25.00;77.80
6375;DHT22;35400;45.472;-122.822;2023-06-26T02:59:22;25.00;78.00
6375;DHT22;35400;45.472;-122.822;2023-06-26T03:01:49;24.90;77.70
6375;DHT22;35400;45.472;-122.822;2023-06-26T03:04:16;24.90;77.80
6375;DHT22;35400;45.472;-122.822;2023-06-26T03:06:44;24.80;76.60
6375;DHT22;35400;45.472;-122.822;2023-06-26T03:09:11;24.70;76.50
6375;DHT22;35400;45.472;-122.822;2023-06-26T03:11:38;24.60;76.20
6375;DHT22;35400;45.472;-122.822;2023-06-26T03:14:05;24.60;76.40
6375;DHT22;35400;45.472;-122.822;2023-06-26T03:16:32;24.50;76.40
6375;DHT22;35400;45.472;-122.822;2023-06-26T03:18:59;24.50;76.30
6375;DHT22;35400;45.472;-122.822;2023-06-26T03:21:27;24.40;76.30
6375;DHT22;35400;45.472;-122.822;2023-06-26T03:23:54;24.30;76.00
6375;DHT22;35400;45.472;-122.822;2023-06-26T03:26:20;24.20;76.20
6375;DHT22;35400;45.472;-122.822;2023-06-26T03:28:55;24.10;76.20
6375;DHT22;35400;45.472;-122.822;2023-06-26T03:31:22;24.00;76.50
6375;DHT22;35400;45.472;-122.822;2023-06-26T03:33:50;23.90;76.60
6375;DHT22;35400;45.472;-122.822;2023-06-26T03:36:16;23.80;76.60
6375;DHT22;35400;45.472;-122.822;2023-06-26T03:38:44;23.70;76.60
6375;DHT22;35400;45.472;-122.822;2023-06-26T03:41:12;23.70;76.80
6375;DHT22;35400;45.472;-122.822;2023-06-26T03:43:41;23.60;76.90
6375;DHT22;35400;45.472;-122.822;2023-06-26T03:46:16;23.50;77.10
6375;DHT22;35400;45.472;-122.822;2023-06-26T03:48:43;23.40;77.20
6375;DHT22;35400;45.472;-122.822;2023-06-26T03:51:09;23.30;77.00
6375;DHT22;35400;45.472;-122.822;2023-06-26T03:53:38;23.30;77.30
6375;DHT22;35400;45.472;-122.822;2023-06-26T03:56:05;23.20;77.60
6375;DHT22;35400;45.472;-122.822;2023-06-26T03:58:32;23.10;77.60
6375;DHT22;35400;45.472;-122.822;2023-06-26T04:00:59;23.10;77.20
6375;DHT22;35400;45.472;-122.822;2023-06-26T04:03:26;23.00;76.70
6375;DHT22;35400;45.472;-122.822;2023-06-26T04:05:53;22.90;76.20
6375;DHT22;35400;45.472;-122.822;2023-06-26T04:08:20;22.90;75.80
6375;DHT22;35400;45.472;-122.822;2023-06-26T04:10:47;22.80;76.10
6375;DHT22;35400;45.472;-122.822;2023-06-26T04:13:14;22.70;75.70
6375;DHT22;35400;45.472;-122.822;2023-06-26T04:15:42;22.60;74.70
6375;DHT22;35400;45.472;-122.822;2023-06-26T04:18:09;22.50;74.60
6375;DHT22;35400;45.472;-122.822;2023-06-26T04:20:39;22.30;74.10
6375;DHT22;35400;45.472;-122.822;2023-06-26T04:23:07;22.30;74.30
6375;DHT22;35400;45.472;-122.822;2023-06-26T04:25:34;22.20;74.60
6375;DHT22;35400;45.472;-122.822;2023-06-26T04:28:01;22.10;74.90
6375;DHT22;35400;45.472;-122.822;2023-06-26T04:30:28;22.00;75.00
6375;DHT22;35400;45.472;-122.822;2023-06-26T04:32:55;22.00;75.30
6375;DHT22;35400;45.472;-122.822;2023-06-26T04:35:25;21.90;75.40
6375;DHT22;35400;45.472;-122.822;2023-06-26T04:37:52;21.80;75.60
6375;DHT22;35400;45.472;-122.822;2023-06-26T04:40:19;21.70;75.80
6375;DHT22;35400;45.472;-122.822;2023-06-26T04:42:45;21.70;76.50
6375;DHT22;35400;45.472;-122.822;2023-06-26T04:45:12;21.60;76.70
6375;DHT22;35400;45.472;-122.822;2023-06-26T04:47:39;21.50;76.90
6375;DHT22;35400;45.472;-122.822;2023-06-26T04:50:06;21.50;77.20
6375;DHT22;35400;45.472;-122.822;2023-06-26T04:52:33;21.40;77.40
6375;DHT22;35400;45.472;-122.822;2023-06-26T04:55:00;21.30;77.70
6375;DHT22;35400;45.472;-122.822;2023-06-26T04:57:27;21.20;77.90
6375;DHT22;35400;45.472;-122.822;2023-06-26T04:59:54;21.10;78.40
6375;DHT22;35400;45.472;-122.822;2023-06-26T05:02:21;21.00;78.60
6375;DHT22;35400;45.472;-122.822;2023-06-26T05:04:47;20.90;79.10
6375;DHT22;35400;45.472;-122.822;2023-06-26T05:07:15;20.90;79.60
6375;DHT22;35400;45.472;-122.822;2023-06-26T05:09:41;20.80;79.70
6375;DHT22;35400;45.472;-122.822;2023-06-26T05:12:08;20.80;79.80
6375;DHT22;35400;45.472;-122.822;2023-06-26T05:14:35;20.70;80.70
6375;DHT22;35400;45.472;-122.822;2023-06-26T05:17:02;20.60;80.40
6375;DHT22;35400;45.472;-122.822;2023-06-26T05:19:29;20.60;80.80
6375;DHT22;35400;45.472;-122.822;2023-06-26T05:21:56;20.50;80.90
6375;DHT22;35400;45.472;-122.822;2023-06-26T05:24:24;20.40;81.50
6375;DHT22;35400;45.472;-122.822;2023-06-26T05:26:52;20.40;81.60
6375;DHT22;35400;45.472;-122.822;2023-06-26T05:29:19;20.30;81.90
6375;DHT22;35400;45.472;-122.822;2023-06-26T05:31:47;20.20;82.00
6375;DHT22;35400;45.472;-122.822;2023-06-26T05:34:15;20.20;82.20
6375;DHT22;35400;45.472;-122.822;2023-06-26T05:36:43;20.10;82.30
6375;DHT22;35400;45.472;-122.822;2023-06-26T05:39:10;20.10;82.90
6375;DHT22;35400;45.472;-122.822;2023-06-26T05:41:37;20.00;82.70
6375;DHT22;35400;45.472;-122.822;2023-06-26T05:44:04;19.90;83.00
6375;DHT22;35400;45.472;-122.822;2023-06-26T05:46:31;19.90;83.30
6375;DHT22;35400;45.472;-122.822;2023-06-26T05:48:58;19.80;83.50
6375;DHT22;35400;45.472;-122.822;2023-06-26T05:51:25;19.70;84.10
6375;DHT22;35400;45.472;-122.822;2023-06-26T05:53:52;19.70;84.40
6375;DHT22;35400;45.472;-122.822;2023-06-26T05:56:19;19.60;85.20
6375;DHT22;35400;45.472;-122.822;2023-06-26T05:58:47;19.50;85.40
6375;DHT22;35400;45.472;-122.822;2023-06-26T06:01:14;19.50;85.80
6375;DHT22;35400;45.472;-122.822;2023-06-26T06:03:41;19.40;86.00
6375;DHT22;35400;45.472;-122.822;2023-06-26T06:06:08;19.30;86.70
6375;DHT22;35400;45.472;-122.822;2023-06-26T06:08:35;19.30;86.90
6375;DHT22;35400;45.472;-122.822;2023-06-26T06:11:02;19.20;87.20
6375;DHT22;35400;45.472;-122.822;2023-06-26T06:13:29;19.20;87.50
6375;DHT22;35400;45.472;-122.822;2023-06-26T06:15:56;19.10;88.00
6375;DHT22;35400;45.472;-122.822;2023-06-26T06:18:23;19.10;88.30
6375;DHT22;35400;45.472;-122.822;2023-06-26T06:20:49;19.00;88.60
6375;DHT22;35400;45.472;-122.822;2023-06-26T06:23:16;18.90;88.80
6375;DHT22;35400;45.472;-122.822;2023-06-26T06:25:43;18.90;89.20
6375;DHT22;35400;45.472;-122.822;2023-06-26T06:28:10;18.80;89.40
6375;DHT22;35400;45.472;-122.822;2023-06-26T06:30:37;18.70;90.10
6375;DHT22;35400;45.472;-122.822;2023-06-26T06:33:04;18.70;90.30
6375;DHT22;35400;45.472;-122.822;2023-06-26T06:35:30;18.60;90.30
6375;DHT22;35400;45.472;-122.822;2023-06-26T06:37:57;18.60;90.40
6375;DHT22;35400;45.472;-122.822;2023-06-26T06:40:24;18.50;90.80
6375;DHT22;35400;45.472;-122.822;2023-06-26T06:42:52;18.50;91.20
6375;DHT22;35400;45.472;-122.822;2023-06-26T06:45:19;18.40;90.90
6375;DHT22;35400;45.472;-122.822;2023-06-26T06:47:46;18.30;90.90
6375;DHT22;35400;45.472;-122.822;2023-06-26T06:50:13;18.30;91.10
6375;DHT22;35400;45.472;-122.822;2023-06-26T06:52:42;18.30;91.30
6375;DHT22;35400;45.472;-122.822;2023-06-26T06:55:10;18.20;91.30
6375;DHT22;35400;45.472;-122.822;2023-06-26T06:57:38;18.20;91.40
6375;DHT22;35400;45.472;-122.822;2023-06-26T07:00:07;18.10;91.40
6375;DHT22;35400;45.472;-122.822;2023-06-26T07:02:38;18.00;91.60
6375;DHT22;35400;45.472;-122.822;2023-06-26T07:05:06;18.00;91.80
6375;DHT22;35400;45.472;-122.822;2023-06-26T07:07:34;18.00;91.90
6375;DHT22;35400;45.472;-122.822;2023-06-26T07:10:06;17.90;92.00
6375;DHT22;35400;45.472;-122.822;2023-06-26T07:12:37;17.80;92.10
6375;DHT22;35400;45.472;-122.822;2023-06-26T07:15:05;17.80;92.20
6375;DHT22;35400;45.472;-122.822;2023-06-26T07:17:35;17.70;92.30
6375;DHT22;35400;45.472;-122.822;2023-06-26T07:20:04;17.70;92.40
6375;DHT22;35400;45.472;-122.822;2023-06-26T07:22:35;17.70;92.60
6375;DHT22;35400;45.472;-122.822;2023-06-26T07:25:02;17.60;92.70
6375;DHT22;35400;45.472;-122.822;2023-06-26T07:27:30;17.60;92.90
6375;DHT22;35400;45.472;-122.822;2023-06-26T07:29:57;17.50;93.00
6375;DHT22;35400;45.472;-122.822;2023-06-26T07:32:24;17.40;93.10
6375;DHT22;35400;45.472;-122.822;2023-06-26T07:34:51;17.40;93.30
6375;DHT22;35400;45.472;-122.822;2023-06-26T07:37:18;17.30;93.50
6375;DHT22;35400;45.472;-122.822;2023-06-26T07:39:45;17.30;93.70
6375;DHT22;35400;45.472;-122.822;2023-06-26T07:42:12;17.20;93.70
6375;DHT22;35400;45.472;-122.822;2023-06-26T07:44:39;17.10;93.90
6375;DHT22;35400;45.472;-122.822;2023-06-26T07:47:06;17.00;94.00
6375;DHT22;35400;45.472;-122.822;2023-06-26T07:49:33;17.00;94.10
6375;DHT22;35400;45.472;-122.822;2023-06-26T07:51:59;16.90;94.30
6375;DHT22;35400;45.472;-122.822;2023-06-26T07:54:26;16.90;94.50
6375;DHT22;35400;45.472;-122.822;2023-06-26T07:57:02;16.80;94.60
6375;DHT22;35400;45.472;-122.822;2023-06-26T07:59:31;16.70;94.70
6375;DHT22;35400;45.472;-122.822;2023-06-26T08:01:58;16.70;94.80
6375;DHT22;35400;45.472;-122.822;2023-06-26T08:04:26;16.70;95.10
6375;DHT22;35400;45.472;-122.822;2023-06-26T08:06:55;16.70;95.30
6375;DHT22;35400;45.472;-122.822;2023-06-26T08:09:25;16.60;95.40
6375;DHT22;35400;45.472;-122.822;2023-06-26T08:11:53;16.60;95.60
6375;DHT22;35400;45.472;-122.822;2023-06-26T08:14:20;16.50;95.70
6375;DHT22;35400;45.472;-122.822;2023-06-26T08:16:48;16.50;95.90
6375;DHT22;35400;45.472;-122.822;2023-06-26T08:19:15;16.40;96.00
6375;DHT22;35400;45.472;-122.822;2023-06-26T08:21:44;16.40;96.20
6375;DHT22;35400;45.472;-122.822;2023-06-26T08:24:11;16.40;96.50
6375;DHT22;35400;45.472;-122.822;2023-06-26T08:26:39;16.30;96.70
6375;DHT22;35400;45.472;-122.822;2023-06-26T08:29:06;16.30;96.90
6375;DHT22;35400;45.472;-122.822;2023-06-26T08:31:37;16.20;97.10
6375;DHT22;35400;45.472;-122.822;2023-06-26T08:34:05;16.20;97.30
6375;DHT22;35400;45.472;-122.822;2023-06-26T08:36:32;16.10;97.50
6375;DHT22;35400;45.472;-122.822;2023-06-26T08:38:59;16.10;97.80
6375;DHT22;35400;45.472;-122.822;2023-06-26T08:41:26;16.10;98.00
6375;DHT22;35400;45.472;-122.822;2023-06-26T08:43:53;16.00;98.20
6375;DHT22;35400;45.472;-122.822;2023-06-26T08:46:20;16.00;98.60
6375;DHT22;35400;45.472;-122.822;2023-06-26T08:49:18;15.90;98.90
6375;DHT22;35400;45.472;-122.822;2023-06-26T08:51:52;15.90;99.30
6375;DHT22;35400;45.472;-122.822;2023-06-26T08:54:27;15.80;99.70
6375;DHT22;35400;45.472;-122.822;2023-06-26T08:56:56;15.80;99.90
6375;DHT22;35400;45.472;-122.822;2023-06-26T08:59:24;15.70;99.90
6375;DHT22;35400;45.472;-122.822;2023-06-26T09:01:51;15.70;99.90
6375;DHT22;35400;45.472;-122.822;2023-06-26T09:04:18;15.60;99.90
6375;DHT22;35400;45.472;-122.822;2023-06-26T09:06:45;15.60;99.90
6375;DHT22;35400;45.472;-122.822;2023-06-26T09:09:12;15.50;99.90
6375;DHT22;35400;45.472;-122.822;2023-06-26T09:11:39;15.50;99.90
6375;DHT22;35400;45.472;-122.822;2023-06-26T09:14:06;15.40;99.90
6375;DHT22;35400;45.472;-122.822;2023-06-26T09:16:40;15.40;99.90
6375;DHT22;35400;45.472;-122.822;2023-06-26T09:19:11;15.30;99.90
6375;DHT22;35400;45.472;-122.822;2023-06-26T09:21:42;15.30;99.90
6375;DHT22;35400;45.472;-122.822;2023-06-26T09:24:10;15.20;99.90
6375;DHT22;35400;45.472;-122.822;2023-06-26T09:26:38;15.20;99.90
6375;DHT22;35400;45.472;-122.822;2023-06-26T09:29:07;15.20;99.90
6375;DHT22;35400;45.472;-122.822;2023-06-26T09:31:37;15.10;99.90
6375;DHT22;35400;45.472;-122.822;2023-06-26T09:34:04;15.00;99.90
6375;DHT22;35400;45.472;-122.822;2023-06-26T09:36:32;15.00;99.90
6375;DHT22;35400;45.472;-122.822;2023-06-26T09:39:05;14.90;99.90
6375;DHT22;35400;45.472;-122.822;2023-06-26T09:41:38;14.90;99.90
6375;DHT22;35400;45.472;-122.822;2023-06-26T09:44:06;14.90;99.90
6375;DHT22;35400;45.472;-122.822;2023-06-26T09:46:34;14.80;99.90
6375;DHT22;35400;45.472;-122.822;2023-06-26T09:49:09;14.80;99.90
6375;DHT22;35400;45.472;-122.822;2023-06-26T09:51:41;14.70;99.90
6375;DHT22;35400;45.472;-122.822;2023-06-26T09:54:08;14.70;99.90
6375;DHT22;35400;45.472;-122.822;2023-06-26T09:56:38;14.70;99.90
6375;DHT22;35400;45.472;-122.822;2023-06-26T09:59:06;14.60;99.90
6375;DHT22;35400;45.472;-122.822;2023-06-26T10:01:36;14.60;99.90
6375;DHT22;35400;45.472;-122.822;2023-06-26T10:04:03;14.50;99.90
6375;DHT22;35400;45.472;-122.822;2023-06-26T10:06:46;14.50;99.90
6375;DHT22;35400;45.472;-122.822;2023-06-26T10:09:18;14.50;99.90
6375;DHT22;35400;45.472;-122.822;2023-06-26T10:12:06;14.50;99.90
6375;DHT22;35400;45.472;-122.822;2023-06-26T10:14:37;14.40;99.90
6375;DHT22;35400;45.472;-122.822;2023-06-26T10:17:15;14.40;99.90
6375;DHT22;35400;45.472;-122.822;2023-06-26T10:19:44;14.40;99.90
6375;DHT22;35400;45.472;-122.822;2023-06-26T10:22:17;14.30;99.90
6375;DHT22;35400;45.472;-122.822;2023-06-26T10:24:45;14.30;99.90
6375;DHT22;35400;45.472;-122.822;2023-06-26T10:27:19;14.30;99.90
6375;DHT22;35400;45.472;-122.822;2023-06-26T10:29:52;14.20;99.90
6375;DHT22;35400;45.472;-122.822;2023-06-26T10:32:25;14.20;99.90
6375;DHT22;35400;45.472;-122.822;2023-06-26T10:34:53;14.10;99.90
6375;DHT22;35400;45.472;-122.822;2023-06-26T10:37:21;14.10;99.90
6375;DHT22;35400;45.472;-122.822;2023-06-26T10:39:48;14.10;99.90
6375;DHT22;35400;45.472;-122.822;2023-06-26T10:42:35;14.00;99.90
6375;DHT22;35400;45.472;-122.822;2023-06-26T10:45:20;14.00;99.90
6375;DHT22;35400;45.472;-122.822;2023-06-26T10:47:48;14.00;99.90
6375;DHT22;35400;45.472;-122.822;2023-06-26T10:50:26;13.90;99.90
6375;DHT22;35400;45.472;-122.822;2023-06-26T10:56:00;13.80;99.90
6375;DHT22;35400;45.472;-122.822;2023-06-26T10:58:41;13.80;99.90
6375;DHT22;35400;45.472;-122.822;2023-06-26T11:03:39;13.70;99.90
6375;DHT22;35400;45.472;-122.822;2023-06-26T11:06:13;13.70;99.90
6375;DHT22;35400;45.472;-122.822;2023-06-26T11:08:51;13.60;99.90
6375;DHT22;35400;45.472;-122.822;2023-06-26T11:11:22;13.60;99.90
6375;DHT22;35400;45.472;-122.822;2023-06-26T11:14:09;13.60;99.90
6375;DHT22;35400;45.472;-122.822;2023-06-26T11:16:36;13.50;99.90
6375;DHT22;35400;45.472;-122.822;2023-06-26T11:19:04;13.50;99.90
6375;DHT22;35400;45.472;-122.822;2023-06-26T11:21:31;13.50;99.90
6375;DHT22;35400;45.472;-122.822;2023-06-26T11:23:58;13.40;99.90
6375;DHT22;35400;45.472;-122.822;2023-06-26T11:26:28;13.40;99.90
6375;DHT22;35400;45.472;-122.822;2023-06-26T11:28:56;13.40;99.90
6375;DHT22;35400;45.472;-122.822;2023-06-26T11:31:33;13.30;99.90
6375;DHT22;35400;45.472;-122.822;2023-06-26T11:34:02;13.30;99.90
6375;DHT22;35400;45.472;-122.822;2023-06-26T11:36:30;13.30;99.90
6375;DHT22;35400;45.472;-122.822;2023-06-26T11:38:59;13.20;99.90
6375;DHT22;35400;45.472;-122.822;2023-06-26T11:41:30;13.20;99.90
6375;DHT22;35400;45.472;-122.822;2023-06-26T11:44:06;13.10;99.90
6375;DHT22;35400;45.472;-122.822;2023-06-26T11:46:34;13.10;99.90
6375;DHT22;35400;45.472;-122.822;2023-06-26T11:49:05;13.10;99.90
6375;DHT22;35400;45.472;-122.822;2023-06-26T11:51:33;13.10;99.90
6375;DHT22;35400;45.472;-122.822;2023-06-26T11:54:03;13.00;99.90
6375;DHT22;35400;45.472;-122.822;2023-06-26T11:56:31;13.00;99.90
6375;DHT22;35400;45.472;-122.822;2023-06-26T11:59:08;12.90;99.90
6375;DHT22;35400;45.472;-122.822;2023-06-26T12:01:43;12.90;99.90
6375;DHT22;35400;45.472;-122.822;2023-06-26T12:04:16;12.90;99.90
6375;DHT22;35400;45.472;-122.822;2023-06-26T12:06:47;12.90;99.90
6375;DHT22;35400;45.472;-122.822;2023-06-26T12:09:18;12.90;99.90
6375;DHT22;35400;45.472;-122.822;2023-06-26T12:11:48;12.80;99.90
6375;DHT22;35400;45.472;-122.822;2023-06-26T12:14:16;12.80;99.90
6375;DHT22;35400;45.472;-122.822;2023-06-26T12:16:44;12.80;99.90
6375;DHT22;35400;45.472;-122.822;2023-06-26T12:19:11;12.80;99.90
6375;DHT22;35400;45.472;-122.822;2023-06-26T12:24:10;12.80;99.90
6375;DHT22;35400;45.472;-122.822;2023-06-26T12:26:40;12.70;99.90
6375;DHT22;35400;45.472;-122.822;2023-06-26T12:29:14;12.70;99.90
6375;DHT22;35400;45.472;-122.822;2023-06-26T12:31:45;12.70;99.90
6375;DHT22;35400;45.472;-122.822;2023-06-26T12:34:14;12.60;99.90
6375;DHT22;35400;45.472;-122.822;2023-06-26T12:36:46;12.70;99.90
6375;DHT22;35400;45.472;-122.822;2023-06-26T12:39:19;12.60;99.90
6375;DHT22;35400;45.472;-122.822;2023-06-26T12:42:20;12.60;99.90
6375;DHT22;35400;45.472;-122.822;2023-06-26T12:44:47;12.50;99.90
6375;DHT22;35400;45.472;-122.822;2023-06-26T12:47:23;12.50;99.90
6375;DHT22;35400;45.472;-122.822;2023-06-26T12:49:51;12.50;99.90
6375;DHT22;35400;45.472;-122.822;2023-06-26T12:52:18;12.50;99.90
6375;DHT22;35400;45.472;-122.822;2023-06-26T12:54:46;12.50;99.90
6375;DHT22;35400;45.472;-122.822;2023-06-26T12:57:14;12.50;99.90
6375;DHT22;35400;45.472;-122.822;2023-06-26T12:59:41;12.50;99.90
6375;DHT22;35400;45.472;-122.822;2023-06-26T13:02:08;12.50;99.90
6375;DHT22;35400;45.472;-122.822;2023-06-26T13:04:35;12.50;99.90
6375;DHT22;35400;45.472;-122.822;2023-06-26T13:07:02;12.60;99.90
6375;DHT22;35400;45.472;-122.822;2023-06-26T13:09:33;12.60;99.90
6375;DHT22;35400;45.472;-122.822;2023-06-26T13:12:02;12.60;99.90
6375;DHT22;35400;45.472;-122.822;2023-06-26T13:14:30;12.60;99.90
6375;DHT22;35400;45.472;-122.822;2023-06-26T13:16:57;12.70;99.90
6375;DHT22;35400;45.472;-122.822;2023-06-26T13:19:24;12.70;99.90
6375;DHT22;35400;45.472;-122.822;2023-06-26T13:21:51;12.80;99.90
6375;DHT22;35400;45.472;-122.822;2023-06-26T13:24:18;12.80;99.90
6375;DHT22;35400;45.472;-122.822;2023-06-26T13:26:45;12.90;99.90
6375;DHT22;35400;45.472;-122.822;2023-06-26T13:29:12;12.90;99.90
6375;DHT22;35400;45.472;-122.822;2023-06-26T13:31:39;13.00;99.90
6375;DHT22;35400;45.472;-122.822;2023-06-26T13:34:05;13.10;99.90
6375;DHT22;35400;45.472;-122.822;2023-06-26T13:36:33;13.10;99.90
6375;DHT22;35400;45.472;-122.822;2023-06-26T13:39:03;13.30;99.90
6375;DHT22;35400;45.472;-122.822;2023-06-26T13:41:30;13.40;99.90
6375;DHT22;35400;45.472;-122.822;2023-06-26T13:43:57;13.60;99.90
6375;DHT22;35400;45.472;-122.822;2023-06-26T13:46:24;13.80;99.90
6375;DHT22;35400;45.472;-122.822;2023-06-26T13:48:51;14.00;99.90
6375;DHT22;35400;45.472;-122.822;2023-06-26T13:51:18;14.30;99.90
6375;DHT22;35400;45.472;-122.822;2023-06-26T13:53:45;14.50;99.90
6375;DHT22;35400;45.472;-122.822;2023-06-26T13:56:12;14.70;99.90
6375;DHT22;35400;45.472;-122.822;2023-06-26T13:58:39;14.80;99.90
6375;DHT22;35400;45.472;-122.822;2023-06-26T14:01:06;14.90;99.90
6375;DHT22;35400;45.472;-122.822;2023-06-26T14:03:33;15.00;99.90
6375;DHT22;35400;45.472;-122.822;2023-06-26T14:05:59;15.10;99.90
6375;DHT22;35400;45.472;-122.822;2023-06-26T14:08:26;15.20;99.90
6375;DHT22;35400;45.472;-122.822;2023-06-26T14:10:53;15.30;99.90
6375;DHT22;35400;45.472;-122.822;2023-06-26T14:13:20;15.30;99.90
6375;DHT22;35400;45.472;-122.822;2023-06-26T14:15:47;15.40;99.90
6375;DHT22;35400;45.472;-122.822;2023-06-26T14:18:14;15.40;99.90
6375;DHT22;35400;45.472;-122.822;2023-06-26T14:20:41;15.40;99.90
6375;DHT22;35400;45.472;-122.822;2023-06-26T14:23:08;15.50;99.90
6375;DHT22;35400;45.472;-122.822;2023-06-26T14:25:35;15.50;99.90
6375;DHT22;35400;45.472;-122.822;2023-06-26T14:28:02;15.50;99.90
6375;DHT22;35400;45.472;-122.822;2023-06-26T14:30:29;15.50;99.90
6375;DHT22;35400;45.472;-122.822;2023-06-26T14:32:56;15.60;99.90
6375;DHT22;35400;45.472;-122.822;2023-06-26T14:35:23;15.60;99.90
6375;DHT22;35400;45.472;-122.822;2023-06-26T14:37:50;15.60;99.90
6375;DHT22;35400;45.472;-122.822;2023-06-26T14:40:17;15.50;99.90
6375;DHT22;35400;45.472;-122.822;2023-06-26T14:42:44;15.60;99.90
6375;DHT22;35400;45.472;-122.822;2023-06-26T14:45:11;15.50;99.90
6375;DHT22;35400;45.472;-122.822;2023-06-26T14:47:38;15.60;99.90
6375;DHT22;35400;45.472;-122.822;2023-06-26T14:50:07;15.60;99.90
6375;DHT22;35400;45.472;-122.822;2023-06-26T14:52:34;15.60;99.90
6375;DHT22;35400;45.472;-122.822;2023-06-26T14:55:01;15.60;99.90
6375;DHT22;35400;45.472;-122.822;2023-06-26T14:57:28;15.60;99.90
6375;DHT22;35400;45.472;-122.822;2023-06-26T14:59:55;15.60;99.90
6375;DHT22;35400;45.472;-122.822;2023-06-26T15:02:22;15.70;99.90
6375;DHT22;35400;45.472;-122.822;2023-06-26T15:04:49;15.80;99.90
6375;DHT22;35400;45.472;-122.822;2023-06-26T15:07:16;15.90;99.90
6375;DHT22;35400;45.472;-122.822;2023-06-26T15:09:43;16.10;99.90
6375;DHT22;35400;45.472;-122.822;2023-06-26T15:12:09;16.20;99.90
6375;DHT22;35400;45.472;-122.822;2023-06-26T15:14:36;16.20;99.90
6375;DHT22;35400;45.472;-122.822;2023-06-26T15:17:04;16.40;99.90
6375;DHT22;35400;45.472;-122.822;2023-06-26T15:19:30;16.60;99.90
6375;DHT22;35400;45.472;-122.822;2023-06-26T15:21:57;16.70;99.90
6375;DHT22;35400;45.472;-122.822;2023-06-26T15:24:24;16.90;99.90
6375;DHT22;35400;45.472;-122.822;2023-06-26T15:26:51;17.10;99.90